Sumiton, Alabama
Current Conditions -  °F | °C
As of 5:15 PM on Saturday 25 Oct 2014 (Local Time) from KJFX Reporting Station
Clear Clear  
Wind Chill: 79°   Ceiling: Unl
Heat Index: 80°   Visibility: 9mi
Dew Point: 63°   Wind: 0mph
Humidity: 57%   Direction: NA
Pressure: 30.04"   Gusts: NA
Location:  33.76°N, 87.05°W
Report Text: KJFX 252215Z AUTO 00000KT 9SM CLR 26/17 A3004 RMK A02 P-128
Loading
Personal Weather Stations






























Interactive Weather Map
Tropical Storm Tracking
New forecast layout! Learn more

10-Day Weather Forecast

Advertisements
Track Severe Weather on mobile